createdAt,value
2019-01-17T00:01:05.620Z,95656.80
2019-01-17T00:04:11.934Z,95646.70
2019-01-17T00:06:50.985Z,95645.40
2019-01-17T00:09:29.893Z,95640.59
2019-01-17T00:12:16.450Z,95639.63
2019-01-17T00:15:07.665Z,95631.08
2019-01-17T00:17:52.935Z,95625.05
2019-01-17T00:20:39.456Z,95648.63
2019-01-17T00:23:29.545Z,95641.19
2019-01-17T00:26:11.691Z,95634.61
2019-01-17T00:28:50.342Z,95632.43
2019-01-17T00:31:27.078Z,95638.48
2019-01-17T00:34:18.522Z,95637.64
2019-01-17T00:37:06.607Z,95630.20
2019-01-17T00:40:00.754Z,95627.27
2019-01-17T00:45:56.397Z,95620.78
2019-01-17T00:48:47.287Z,95611.64
2019-01-17T00:51:47.150Z,95613.73
2019-01-17T00:54:24.945Z,95610.80
2019-01-17T00:57:15.774Z,95631.45
2019-01-17T01:00:06.870Z,95626.16
2019-01-17T01:02:44.446Z,95628.23
2019-01-17T01:05:35.520Z,95627.43
2019-01-17T01:08:29.462Z,95617.13
2019-01-17T01:11:32.498Z,95635.36
2019-01-17T01:14:26.313Z,95629.25
2019-01-17T01:17:12.653Z,95609.61
2019-01-17T01:19:59.386Z,95597.38
2019-01-17T01:22:45.870Z,95606.58
2019-01-17T01:25:46.145Z,95594.65
2019-01-17T01:28:32.674Z,95604.52
2019-01-17T01:31:20.742Z,95607.23
2019-01-17T01:34:02.108Z,95607.70
2019-01-17T01:36:50.577Z,95609.18
2019-01-17T01:39:37.210Z,95605.42
2019-01-17T01:42:14.546Z,95608.35
2019-01-17T01:45:08.641Z,95612.33
2019-01-17T01:47:56.711Z,95617.94
2019-01-17T01:50:36.820Z,95608.48
2019-01-17T01:53:09.011Z,95620.71
2019-01-17T01:55:38.086Z,95614.91
2019-01-17T01:58:07.185Z,95616.83
2019-01-17T02:00:36.270Z,95619.39
2019-01-17T02:03:05.369Z,95621.09
2019-01-17T02:05:34.453Z,95621.88
2019-01-17T02:08:03.848Z,95611.22
2019-01-17T02:10:32.917Z,95619.17
2019-01-17T02:13:02.031Z,95617.63
2019-01-17T02:15:31.104Z,95618.50
2019-01-17T02:18:00.204Z,95609.74
2019-01-17T02:20:29.270Z,95622.83
2019-01-17T02:22:58.386Z,95620.69
2019-01-17T02:25:27.453Z,95611.92
2019-01-17T02:27:56.556Z,95617.23
2019-01-17T02:30:25.643Z,95615.11
2019-01-17T02:32:54.715Z,95611.20
2019-01-17T02:35:23.817Z,95609.63
2019-01-17T02:37:52.914Z,95606.25
2019-01-17T02:40:22.032Z,95609.17
2019-01-17T02:42:51.113Z,95615.19
2019-01-17T02:45:20.222Z,95617.93
2019-01-17T02:47:49.306Z,95608.64
2019-01-17T02:50:18.410Z,95609.75
2019-01-17T02:52:47.490Z,95601.52
2019-01-17T02:55:16.582Z,95602.84
2019-01-17T02:57:45.660Z,95597.02
2019-01-17T03:00:16.653Z,95599.62
2019-01-17T03:02:45.731Z,95605.20
2019-01-17T03:05:14.939Z,95598.29
2019-01-17T03:07:44.119Z,95597.53
2019-01-17T03:10:17.797Z,95590.33
2019-01-17T03:12:46.881Z,95596.44
2019-01-17T03:15:15.984Z,95599.36
2019-01-17T03:17:45.067Z,95608.09
2019-01-17T03:20:14.655Z,95592.16
2019-01-17T03:22:43.734Z,95592.98
2019-01-17T03:25:12.861Z,95585.59
2019-01-17T03:27:41.952Z,95588.48
2019-01-17T03:30:16.650Z,95587.20
2019-01-17T03:32:45.929Z,95585.88
2019-01-17T03:35:15.027Z,95582.66
2019-01-17T03:37:44.110Z,95587.20
2019-01-17T03:40:15.497Z,95588.81
2019-01-17T03:42:44.570Z,95590.39
2019-01-17T03:45:14.017Z,95599.96
2019-01-17T03:47:43.106Z,95583.57
2019-01-17T03:50:13.638Z,95581.33
2019-01-17T03:52:42.747Z,95588.02
2019-01-17T03:55:13.807Z,95588.30
2019-01-17T03:57:42.902Z,95592.30
2019-01-17T04:00:15.211Z,95583.22
2019-01-17T04:02:44.318Z,95583.23
2019-01-17T04:05:13.491Z,95583.98
2019-01-17T04:07:42.582Z,95584.05
2019-01-17T04:10:12.805Z,95583.51
2019-01-17T04:12:41.907Z,95576.88
2019-01-17T04:15:11.256Z,95576.59
2019-01-17T04:17:40.357Z,95574.70
2019-01-17T04:20:12.412Z,95573.94
2019-01-17T04:22:41.520Z,95575.55
2019-01-17T04:25:10.647Z,95567.84
2019-01-17T04:27:39.745Z,95569.67
2019-01-17T04:30:12.250Z,95564.09
2019-01-17T04:32:41.347Z,95574.17
2019-01-17T04:35:10.524Z,95562.52
2019-01-17T04:37:39.624Z,95567.78
2019-01-17T04:40:09.303Z,95564.33
2019-01-17T04:42:38.397Z,95571.98
2019-01-17T04:45:08.406Z,95568.06
2019-01-17T04:47:37.506Z,95568.86
2019-01-17T04:50:08.100Z,95581.09
2019-01-17T04:52:37.208Z,95571.52
2019-01-17T04:55:07.490Z,95574.98
2019-01-17T04:57:36.580Z,95568.13
2019-01-17T05:00:08.371Z,95573.94
2019-01-17T05:02:38.552Z,95564.15
2019-01-17T05:05:07.943Z,95565.19
2019-01-17T05:07:37.043Z,95569.67
2019-01-17T05:10:06.603Z,95566.98
2019-01-17T05:12:35.705Z,95564.09
2019-01-17T05:15:05.319Z,95569.38
2019-01-17T05:17:34.420Z,95556.35
2019-01-17T05:20:03.561Z,95554.27
2019-01-17T05:22:32.672Z,95570.19
2019-01-17T05:25:01.735Z,95556.12
2019-01-17T05:27:30.814Z,95561.09
2019-01-17T05:30:01.647Z,95564.07
2019-01-17T05:32:36.596Z,95567.53
2019-01-17T05:35:01.615Z,95570.94
2019-01-17T05:37:30.696Z,95562.42
2019-01-17T05:39:59.820Z,95560.05
2019-01-17T05:42:28.904Z,95549.44
2019-01-17T05:44:58.004Z,95539.34
2019-01-17T05:47:27.098Z,95541.19
2019-01-17T05:49:56.194Z,95544.70
2019-01-17T05:52:25.269Z,95546.73
2019-01-17T05:54:54.367Z,95543.33
2019-01-17T05:57:23.437Z,95536.12
2019-01-17T05:59:52.543Z,95550.42
2019-01-17T06:02:21.629Z,95550.64
2019-01-17T06:04:50.723Z,95543.73
2019-01-17T06:07:19.807Z,95535.02
2019-01-17T06:09:48.918Z,95535.77
2019-01-17T06:12:17.995Z,95535.48
2019-01-17T06:14:47.102Z,95527.47
2019-01-17T06:17:16.179Z,95537.03
2019-01-17T06:19:45.278Z,95527.68
2019-01-17T06:22:14.351Z,95517.94
2019-01-17T06:24:43.475Z,95521.57
2019-01-17T06:27:12.563Z,95512.01
2019-01-17T06:29:41.661Z,95509.12
2019-01-17T06:32:10.743Z,95511.20
2019-01-17T06:34:39.848Z,95522.33
2019-01-17T06:37:08.922Z,95509.89
2019-01-17T06:39:38.046Z,95503.61
2019-01-17T06:42:07.123Z,95512.37
2019-01-17T06:44:36.219Z,95519.45
2019-01-17T06:47:05.295Z,95522.89
2019-01-17T06:49:34.371Z,95520.50
2019-01-17T06:52:03.478Z,95520.70
2019-01-17T06:54:32.550Z,95522.77
2019-01-17T06:57:01.659Z,95511.37
2019-01-17T06:59:30.730Z,95512.92
2019-01-17T07:01:59.827Z,95533.38
2019-01-17T07:04:28.900Z,95542.20
2019-01-17T07:06:57.998Z,95535.06
2019-01-17T07:09:27.076Z,95523.59
2019-01-17T07:11:56.167Z,95521.22
2019-01-17T07:14:25.238Z,95507.34
2019-01-17T07:16:54.349Z,95498.30
2019-01-17T07:19:23.455Z,95493.78
2019-01-17T07:21:52.555Z,95497.23
2019-01-17T07:24:21.626Z,95503.64
2019-01-17T07:26:50.712Z,95506.30
2019-01-17T07:29:19.789Z,95517.12
2019-01-17T07:31:48.904Z,95535.39
2019-01-17T07:34:17.976Z,95535.47
2019-01-17T07:36:47.075Z,95541.93
2019-01-17T07:39:16.154Z,95541.17
2019-01-17T07:41:45.278Z,95531.10
2019-01-17T07:44:14.370Z,95534.56
2019-01-17T07:46:43.471Z,95530.64
2019-01-17T07:49:12.546Z,95536.56
2019-01-17T07:51:41.647Z,95536.80
2019-01-17T07:54:10.730Z,95529.65
2019-01-17T07:56:39.826Z,95527.53
2019-01-17T07:59:08.914Z,95533.41
2019-01-17T08:01:38.019Z,95532.42
2019-01-17T08:04:07.109Z,95543.73
2019-01-17T08:06:36.213Z,95549.55
2019-01-17T08:09:09.384Z,95544.36
2019-01-17T08:11:38.487Z,95540.44
2019-01-17T08:14:07.572Z,95542.80
2019-01-17T08:16:36.670Z,95552.84
2019-01-17T08:19:05.763Z,95553.66
2019-01-17T08:21:34.836Z,95554.73
2019-01-17T08:24:03.931Z,95558.72
2019-01-17T08:26:33.014Z,95558.72
2019-01-17T08:29:02.118Z,95559.58
2019-01-17T08:31:31.193Z,95555.03
2019-01-17T08:34:00.289Z,95551.80
2019-01-17T08:36:29.353Z,95545.62
2019-01-17T08:38:58.457Z,95554.39
2019-01-17T08:41:27.552Z,95553.06
2019-01-17T08:43:56.748Z,95557.80
2019-01-17T08:46:25.834Z,95547.06
2019-01-17T08:48:54.927Z,95543.60
2019-01-17T08:51:24.004Z,95547.88
2019-01-17T08:53:53.103Z,95553.62
2019-01-17T08:56:22.193Z,95554.53
2019-01-17T08:58:51.292Z,95561.12
2019-01-17T09:01:20.375Z,95563.73
2019-01-17T09:03:49.466Z,95553.88
2019-01-17T09:06:18.545Z,95568.36
2019-01-17T09:08:47.645Z,95571.47
2019-01-17T09:11:16.720Z,95573.33
2019-01-17T09:13:45.825Z,95574.41
2019-01-17T09:16:14.898Z,95578.63
2019-01-17T09:18:43.998Z,95592.06
2019-01-17T09:21:13.077Z,95582.36
2019-01-17T09:23:42.170Z,95586.74
2019-01-17T09:26:11.253Z,95577.17
2019-01-17T09:28:40.347Z,95578.64
2019-01-17T09:31:09.417Z,95571.09
2019-01-17T09:33:38.518Z,95572.20
2019-01-17T09:36:07.591Z,95568.41
2019-01-17T09:38:36.688Z,95562.31
2019-01-17T09:41:05.789Z,95565.75
2019-01-17T09:43:34.877Z,95571.33
2019-01-17T09:46:03.970Z,95568.02
2019-01-17T09:48:33.049Z,95571.94
2019-01-17T09:51:02.141Z,95566.38
2019-01-17T09:53:31.210Z,95555.53
2019-01-17T09:56:00.303Z,95570.89
2019-01-17T09:58:29.370Z,95572.98
2019-01-17T10:00:58.466Z,95572.14
2019-01-17T10:03:27.533Z,95574.11
2019-01-17T10:05:56.637Z,95580.04
2019-01-17T10:08:25.721Z,95579.46
2019-01-17T10:10:54.813Z,95569.56
2019-01-17T10:13:23.881Z,95560.80
2019-01-17T10:16:31.151Z,95551.43
2019-01-17T10:19:38.423Z,95553.72
2019-01-17T10:22:44.461Z,95552.47
2019-01-17T10:25:45.470Z,95537.44
2019-01-17T10:28:30.230Z,95552.39
2019-01-17T10:31:29.948Z,95546.61
2019-01-17T10:34:55.028Z,95543.92
2019-01-17T10:38:28.906Z,95554.27
2019-01-17T10:41:32.253Z,95541.95
2019-01-17T10:44:57.279Z,95530.27
2019-01-17T10:48:09.383Z,95534.99
2019-01-17T10:51:14.114Z,95542.47
2019-01-17T10:54:15.300Z,95529.67
2019-01-17T10:57:02.009Z,95523.88
2019-01-17T10:59:53.493Z,95521.41
2019-01-17T11:03:09.330Z,95519.27
2019-01-17T11:06:11.440Z,95527.13
2019-01-17T11:09:24.554Z,95511.00
2019-01-17T11:12:20.404Z,95501.41
2019-01-17T11:15:18.021Z,95510.91
2019-01-17T11:18:37.511Z,95499.73
2019-01-17T11:21:37.424Z,95494.89
2019-01-17T11:24:20.290Z,95489.80
2019-01-17T11:27:26.268Z,95474.55
2019-01-17T11:30:12.546Z,95480.42
2019-01-17T11:33:09.105Z,95475.17
2019-01-17T11:36:28.356Z,95463.16
2019-01-17T11:39:11.030Z,95479.47
2019-01-17T11:42:09.463Z,95472.13
2019-01-17T11:45:02.645Z,95462.94
2019-01-17T11:47:56.639Z,95476.53
2019-01-17T11:50:40.829Z,95456.67
2019-01-17T11:53:37.593Z,95449.72
2019-01-17T11:56:30.211Z,95448.48
2019-01-17T11:59:19.618Z,95455.20
2019-01-17T12:02:39.120Z,95453.06
2019-01-17T12:05:06.759Z,95482.63
2019-01-17T12:07:35.857Z,95454.91
2019-01-17T12:10:05.690Z,95451.89
2019-01-17T12:12:34.958Z,95443.64
2019-01-17T12:15:04.637Z,95451.48
2019-01-17T12:17:33.730Z,95459.92
2019-01-17T12:20:02.798Z,95454.27
2019-01-17T12:22:31.890Z,95453.06
2019-01-17T12:25:00.957Z,95451.92
2019-01-17T12:27:30.057Z,95455.41
2019-01-17T12:29:59.126Z,95456.34
2019-01-17T12:32:28.200Z,95456.97
2019-01-17T12:34:57.289Z,95459.00
2019-01-17T12:37:26.366Z,95462.34
2019-01-17T12:39:55.460Z,95453.61
2019-01-17T12:42:24.572Z,95448.55
2019-01-17T12:44:53.661Z,95454.66
2019-01-17T12:47:22.733Z,95442.67
2019-01-17T12:49:51.826Z,95452.57
2019-01-17T12:52:20.901Z,95440.97
2019-01-17T12:54:49.999Z,95436.77
2019-01-17T12:57:19.073Z,95434.48
2019-01-17T12:59:48.166Z,95439.83
2019-01-17T13:02:17.237Z,95437.30
2019-01-17T13:04:46.341Z,95431.42
2019-01-17T13:07:15.413Z,95440.99
2019-01-17T13:09:44.502Z,95442.38
2019-01-17T13:12:13.587Z,95426.76
2019-01-17T13:14:42.690Z,95438.41
2019-01-17T13:17:11.764Z,95455.30
2019-01-17T13:19:41.037Z,95439.57
2019-01-17T13:22:10.125Z,95454.98
2019-01-17T13:24:39.213Z,95452.73
2019-01-17T13:27:08.293Z,95455.00
2019-01-17T13:29:37.389Z,95471.35
2019-01-17T13:32:06.477Z,95451.53
2019-01-17T13:34:35.585Z,95448.09
2019-01-17T13:37:04.676Z,95457.89
2019-01-17T13:39:33.769Z,95463.58
2019-01-17T13:42:02.862Z,95480.64
2019-01-17T13:44:31.949Z,95466.27
2019-01-17T13:47:01.026Z,95468.13
2019-01-17T13:49:30.115Z,95482.83
2019-01-17T13:51:59.187Z,95484.06
2019-01-17T13:54:28.278Z,95491.90
2019-01-17T13:56:57.356Z,95497.90
2019-01-17T13:59:26.454Z,95498.45
2019-01-17T14:01:55.541Z,95511.37
2019-01-17T14:04:24.732Z,95529.81
2019-01-17T14:06:53.815Z,95553.36
2019-01-17T14:09:22.914Z,95551.67
2019-01-17T14:11:51.994Z,95561.17
2019-01-17T14:14:21.098Z,95562.01
2019-01-17T14:16:50.180Z,95559.31
2019-01-17T14:19:19.271Z,95560.39
2019-01-17T14:21:48.382Z,95566.77
2019-01-17T14:24:17.459Z,95562.91
2019-01-17T14:26:46.578Z,95565.72
2019-01-17T14:29:15.657Z,95566.34
2019-01-17T14:31:44.754Z,95569.56
2019-01-17T14:34:13.850Z,95572.50
2019-01-17T14:36:42.950Z,95576.98
2019-01-17T14:39:12.032Z,95579.91
2019-01-17T14:41:41.145Z,95584.45
2019-01-17T14:44:10.231Z,95587.19
2019-01-17T14:46:39.338Z,95591.41
2019-01-17T14:49:08.423Z,95603.92
2019-01-17T14:51:37.512Z,95609.69
2019-01-17T14:54:06.581Z,95617.11
2019-01-17T14:56:35.673Z,95623.28
2019-01-17T14:59:04.747Z,95625.67
2019-01-17T15:01:33.838Z,95628.69
2019-01-17T15:04:02.930Z,95637.16
2019-01-17T15:06:32.020Z,95632.66
2019-01-17T15:09:01.093Z,95637.30
2019-01-17T15:11:30.177Z,95641.04
2019-01-17T15:13:59.249Z,95642.30
2019-01-17T15:16:28.359Z,95648.92
2019-01-17T15:18:57.429Z,95656.49
2019-01-17T15:21:26.521Z,95662.47
2019-01-17T15:23:55.592Z,95662.91
2019-01-17T15:26:24.684Z,95661.05
2019-01-17T15:28:53.758Z,95666.09
2019-01-17T15:31:22.850Z,95663.42
2019-01-17T15:33:51.921Z,95676.66
2019-01-17T15:36:21.014Z,95671.78
2019-01-17T15:38:50.096Z,95677.88
2019-01-17T15:41:19.204Z,95682.08
2019-01-17T15:43:48.280Z,95674.17
2019-01-17T15:46:17.380Z,95691.86
2019-01-17T15:48:46.455Z,95685.56
2019-01-17T15:51:15.526Z,95692.16
2019-01-17T15:53:45.130Z,95715.23
2019-01-17T15:56:14.199Z,95721.05
2019-01-17T15:58:43.377Z,95725.23
2019-01-17T16:01:12.468Z,95733.02
2019-01-17T16:03:41.585Z,95733.92
2019-01-17T16:06:10.671Z,95738.56
2019-01-17T16:08:39.788Z,95747.98
2019-01-17T16:11:08.870Z,95751.44
2019-01-17T16:13:37.984Z,95755.93
2019-01-17T16:16:07.060Z,95771.91
2019-01-17T16:18:36.159Z,95781.84
2019-01-17T16:21:05.262Z,95790.47
2019-01-17T16:23:34.356Z,95797.83
2019-01-17T16:26:03.442Z,95811.23
2019-01-17T16:28:32.555Z,95803.16
2019-01-17T16:31:01.640Z,95810.38
2019-01-17T16:33:30.751Z,95820.47
2019-01-17T16:35:59.841Z,95818.95
2019-01-17T16:38:28.943Z,95826.88
2019-01-17T16:40:58.058Z,95833.22
2019-01-17T16:43:27.162Z,95838.84
2019-01-17T16:45:56.258Z,95848.05
2019-01-17T16:48:25.346Z,95865.11
2019-01-17T16:50:54.429Z,95851.60
2019-01-17T16:53:23.529Z,95853.81
2019-01-17T16:55:52.602Z,95868.95
2019-01-17T16:58:21.708Z,95878.37
2019-01-17T17:00:50.886Z,95883.14
2019-01-17T17:03:20.025Z,95889.08
2019-01-17T17:05:49.128Z,95889.29
2019-01-17T17:08:18.314Z,95900.97
2019-01-17T17:10:47.397Z,95907.87
2019-01-17T17:13:16.488Z,95914.75
2019-01-17T17:15:45.556Z,95927.41
2019-01-17T17:18:14.652Z,95931.96
2019-01-17T17:20:43.726Z,95933.15
2019-01-17T17:23:12.827Z,95945.34
2019-01-17T17:25:41.909Z,95947.39
2019-01-17T17:28:10.995Z,95959.85
2019-01-17T17:30:41.302Z,95954.45
2019-01-17T17:33:10.369Z,95953.94
2019-01-17T17:35:39.474Z,95961.27
2019-01-17T17:38:08.552Z,95958.28
2019-01-17T17:40:37.657Z,95961.13
2019-01-17T17:43:06.763Z,95961.63
2019-01-17T17:45:35.858Z,95954.58
2019-01-17T17:48:05.456Z,95961.80
2019-01-17T17:50:34.673Z,95960.02
2019-01-17T17:53:03.786Z,95968.83
2019-01-17T17:55:32.882Z,95979.13
2019-01-17T17:58:02.482Z,95974.88
2019-01-17T18:00:41.102Z,95986.15
2019-01-17T18:03:10.188Z,95989.98
2019-01-17T18:05:39.278Z,95995.94
2019-01-17T18:08:08.362Z,95993.80
2019-01-17T18:10:37.557Z,95998.19
2019-01-17T18:13:06.701Z,96005.36
2019-01-17T18:15:35.837Z,96005.05
2019-01-17T18:18:05.018Z,96008.13
2019-01-17T18:20:34.565Z,96019.30
2019-01-17T18:23:03.675Z,96012.85
2019-01-17T18:25:32.769Z,96017.38
2019-01-17T18:28:01.857Z,96018.30
2019-01-17T18:30:30.958Z,96024.90
2019-01-17T18:33:00.046Z,96025.86
2019-01-17T18:35:29.164Z,96031.35
2019-01-17T18:37:58.237Z,96034.59
2019-01-17T18:40:27.339Z,96037.53
2019-01-17T18:42:56.458Z,96044.65
2019-01-17T18:45:26.604Z,96050.95
2019-01-17T18:47:58.249Z,96052.93
2019-01-17T18:50:29.352Z,96055.01
2019-01-17T18:52:58.709Z,96069.08
2019-01-17T18:55:28.166Z,96060.40
2019-01-17T18:57:57.477Z,96060.40
2019-01-17T19:00:28.916Z,96071.62
2019-01-17T19:02:58.368Z,96076.30
2019-01-17T19:05:28.321Z,96078.57
2019-01-17T19:07:57.836Z,96081.42
2019-01-17T19:10:27.318Z,96078.27
2019-01-17T19:12:56.557Z,96089.32
2019-01-17T19:15:30.799Z,96098.03
2019-01-17T19:18:00.108Z,96095.64
2019-01-17T19:20:29.649Z,96098.59
2019-01-17T19:22:59.133Z,96097.81
2019-01-17T19:25:29.247Z,96093.45
2019-01-17T19:27:58.355Z,96093.91
2019-01-17T19:30:29.053Z,96095.06
2019-01-17T19:32:58.152Z,96093.20
2019-01-17T19:35:27.608Z,96097.16
2019-01-17T19:37:57.080Z,96101.65
2019-01-17T19:40:27.959Z,96106.47
2019-01-17T19:42:58.212Z,96099.06
2019-01-17T19:45:27.310Z,96097.22
2019-01-17T19:47:56.412Z,96108.97
2019-01-17T19:50:28.510Z,96103.24
2019-01-17T19:52:58.253Z,96109.66
2019-01-17T19:55:28.605Z,96122.64
2019-01-17T19:58:00.945Z,96119.04
2019-01-17T20:00:30.708Z,96129.23
2019-01-17T20:03:00.230Z,96123.82
2019-01-17T20:05:31.327Z,96123.86
2019-01-17T20:08:01.320Z,96125.69
2019-01-17T20:10:32.993Z,96122.67
2019-01-17T20:13:02.663Z,96118.72
2019-01-17T20:15:32.398Z,96123.69
2019-01-17T20:18:02.865Z,96116.34
2019-01-17T20:20:33.851Z,96126.28
2019-01-17T20:23:03.944Z,96127.41
2019-01-17T20:25:33.464Z,96135.39
2019-01-17T20:28:05.105Z,96135.69
2019-01-17T20:30:36.638Z,96136.47
2019-01-17T20:33:08.500Z,96137.48
2019-01-17T20:35:39.911Z,96137.28
2019-01-17T20:38:10.409Z,96137.86
2019-01-17T20:40:39.631Z,96151.46
2019-01-17T20:43:09.275Z,96150.65
2019-01-17T20:45:39.375Z,96152.17
2019-01-17T20:48:08.872Z,96164.76
2019-01-17T20:50:37.941Z,96167.67
2019-01-17T20:53:07.037Z,96167.37
2019-01-17T20:55:36.112Z,96169.06
2019-01-17T20:58:05.214Z,96174.98
2019-01-17T21:00:41.798Z,96176.23
2019-01-17T21:03:12.550Z,96183.70
2019-01-17T21:05:41.630Z,96184.89
2019-01-17T21:08:10.730Z,96197.23
2019-01-17T21:10:39.813Z,96196.11
2019-01-17T21:13:08.915Z,96199.80
2019-01-17T21:15:37.986Z,96206.39
2019-01-17T21:18:07.113Z,96216.84
2019-01-17T21:20:36.207Z,96224.94
2019-01-17T21:23:05.584Z,96228.83
2019-01-17T21:25:34.718Z,96234.50
2019-01-17T21:28:03.800Z,96234.32
2019-01-17T21:30:32.896Z,96238.89
2019-01-17T21:33:06.791Z,96239.40
2019-01-17T21:35:32.803Z,96257.76
2019-01-17T21:38:01.890Z,96249.34
2019-01-17T21:40:30.990Z,96261.13
2019-01-17T21:43:00.081Z,96259.94
2019-01-17T21:45:29.229Z,96267.42
2019-01-17T21:47:58.266Z,96272.69
2019-01-17T21:50:28.144Z,96278.59
2019-01-17T21:52:57.211Z,96281.67
2019-01-17T21:55:26.306Z,96283.95
2019-01-17T21:57:55.378Z,96293.30
2019-01-17T22:00:25.483Z,96285.27
2019-01-17T22:02:54.573Z,96301.02
2019-01-17T22:05:23.670Z,96300.28
2019-01-17T22:07:52.767Z,96305.55
2019-01-17T22:10:22.664Z,96314.66
2019-01-17T22:12:51.762Z,96313.66
2019-01-17T22:15:22.597Z,96317.49
2019-01-17T22:17:51.691Z,96320.37
2019-01-17T22:20:20.787Z,96325.84
2019-01-17T22:22:49.874Z,96320.57
2019-01-17T22:25:19.300Z,96328.40
2019-01-17T22:27:49.481Z,96333.56
2019-01-17T22:30:20.681Z,96341.17
2019-01-17T22:32:49.765Z,96345.13
2019-01-17T22:35:18.870Z,96348.66
2019-01-17T22:37:47.951Z,96356.68
2019-01-17T22:40:17.091Z,96363.59
2019-01-17T22:42:46.201Z,96362.08
2019-01-17T22:45:20.664Z,96363.39
2019-01-17T22:47:49.743Z,96372.91
2019-01-17T22:50:19.084Z,96371.70
2019-01-17T22:52:48.631Z,96373.33
2019-01-17T22:55:17.708Z,96375.27
2019-01-17T22:57:46.801Z,96377.17
2019-01-17T23:00:51.810Z,96381.95
2019-01-17T23:03:23.377Z,96380.43
2019-01-17T23:05:52.457Z,96382.49
2019-01-17T23:08:21.548Z,96386.64
2019-01-17T23:10:50.621Z,96385.12
2019-01-17T23:13:19.744Z,96384.58
2019-01-17T23:15:48.809Z,96386.64
2019-01-17T23:18:17.897Z,96391.61
2019-01-17T23:20:46.968Z,96393.32
2019-01-17T23:23:16.091Z,96392.42
2019-01-17T23:25:45.159Z,96395.98
2019-01-17T23:28:14.261Z,96401.86
2019-01-17T23:30:43.334Z,96400.03
2019-01-17T23:33:12.505Z,96402.59
2019-01-17T23:35:41.573Z,96412.94
2019-01-17T23:38:10.675Z,96411.31
2019-01-17T23:40:39.761Z,96416.79
2019-01-17T23:43:08.898Z,96421.25
2019-01-17T23:45:37.964Z,96424.89
2019-01-17T23:48:07.060Z,96424.39
2019-01-17T23:50:36.137Z,96427.03
2019-01-17T23:53:05.554Z,96432.90
2019-01-17T23:55:34.634Z,96435.56
2019-01-17T23:58:03.736Z,96435.05
